This is the latest recevied weather packets stored in our database for station/object WV8BRW. If no packets are shown the sender has not sent any weather packets the latest 1 day(s).
| Time | Temp. | Humidity | Pressure | Rain* | Wind** | Luminosity | Snow |
|---|---|---|---|---|---|---|---|
| 1777986316 | 19.44° C | 63% | 1010.3 hPa | 0 mm | 1.34 m/s, 324° | 324 W/m² | - |
| 1777986014 | 18.33° C | 70% | 1010.6 hPa | 0 mm | 0 m/s | 295 W/m² | - |
| 1777985710 | 18.33° C | 74% | 1010.5 hPa | 0 mm | 0.45 m/s, 349° | 67 W/m² | - |
| 1777985407 | 17.78° C | 76% | 1010.6 hPa | 0 mm | 0 m/s | 99 W/m² | - |
| 1777985104 | 17.78° C | 72% | 1010.6 hPa | 0 mm | 0 m/s | 99 W/m² | - |
| 1777984800 | 17.78° C | 81% | 1010.7 hPa | 0 mm | 0 m/s | 104 W/m² | - |
| 1777984496 | 17.78° C | 77% | 1010.6 hPa | 0 mm | 0.45 m/s, 329° | 85 W/m² | - |
| 1777984192 | 17.78° C | 75% | 1010.4 hPa | 0 mm | 0 m/s | 107 W/m² | - |
| 1777983890 | 17.78° C | 79% | 1010.5 hPa | 0 mm | 0 m/s | 78 W/m² | - |
| 1777983587 | 17.22° C | 79% | 1010.5 hPa | 0 mm | 0 m/s | 88 W/m² | - |
| 1777983283 | 17.22° C | 82% | 1010.5 hPa | 0 mm | 0 m/s | 90 W/m² | - |
| 1777982979 | 16.67° C | 81% | 1010.5 hPa | 0 mm | 0 m/s | 77 W/m² | - |
| 1777982676 | 16.67° C | 81% | 1010.3 hPa | 0 mm | 0 m/s | 69 W/m² | - |
| 1777982375 | 16.67° C | 77% | 1010.1 hPa | 0 mm | 0 m/s | 69 W/m² | - |
| 1777982072 | 16.11° C | 79% | 1010.2 hPa | 0 mm | 0 m/s | 74 W/m² | - |
| 1777981770 | 16.11° C | 79% | 1010 hPa | 0 mm | 0 m/s | 59 W/m² | - |
| 1777981466 | 15.56° C | 81% | 1009.8 hPa | 0 mm | 0 m/s | 71 W/m² | - |
| 1777981162 | 15.56° C | 79% | 1009.8 hPa | 0 mm | 0 m/s | 63 W/m² | - |
| 1777980859 | 15° C | 80% | 1009.5 hPa | 0 mm | 0.45 m/s, 323° | 55 W/m² | - |
| 1777980555 | 15° C | 81% | 1009.6 hPa | 0 mm | 0 m/s | 46 W/m² | - |
| 1777980253 | 15° C | 80% | 1009.5 hPa | 0 mm | 0.45 m/s, 329° | 37 W/m² | - |
| 1777979948 | 15° C | 80% | 1009.6 hPa | 0 mm | 0.45 m/s, 320° | 37 W/m² | - |
| 1777979643 | 14.44° C | 81% | 1009.4 hPa | 0 mm | 0.45 m/s, 330° | 32 W/m² | - |
| 1777979340 | 14.44° C | 81% | 1009.5 hPa | 0 mm | 0 m/s | 29 W/m² | - |
| 1777979037 | 14.44° C | 82% | 1009.4 hPa | 0 mm | 0.45 m/s, 327° | 15 W/m² | - |
* Rain latest hour (hover to see other rain measurements)
** Current wind speed in m/s (hover to see current wind gust speed)